Roy, Montana
Current Conditions -  °F | °C
As of 11:54 PM on Friday 31 Oct 2014 (Local Time) from KLWT Reporting Station
Clear Clear  
Wind Chill: 50°   Ceiling: Unl
Heat Index: 50°   Visibility: 10mi
Dew Point: 32°   Wind: 6mph
Humidity: 50%   Direction: 130°SE
Pressure: 29.75"   Gusts: NA
Location:  47.33°N, 108.96°W
Report Text: KLWT 010554Z AUTO 13005KT 10SM CLR 10/00 A2975 RMK AO2 SLP055 T01000000 10172 20100 58002
Loading
Personal Weather Stations






























Interactive Weather Map
Tropical Storm Tracking
New forecast layout! Learn more

10-Day Weather Forecast

Advertisements
Track Severe Weather on mobile